sensor_id;sensor_type;location;lat;lon;timestamp;temperature;humidity
65291;SHT30;51893;59.754;10.110;2023-11-19T00:00:40;-5.65;79.04
65291;SHT30;51893;59.754;10.110;2023-11-19T00:03:40;-5.61;79.17
65291;SHT30;51893;59.754;10.110;2023-11-19T00:06:09;-5.54;79.08
65291;SHT30;51893;59.754;10.110;2023-11-19T00:08:38;-5.57;78.86
65291;SHT30;51893;59.754;10.110;2023-11-19T00:11:07;-5.62;78.92
65291;SHT30;51893;59.754;10.110;2023-11-19T00:13:35;-5.58;78.98
65291;SHT30;51893;59.754;10.110;2023-11-19T00:16:03;-5.59;78.77
65291;SHT30;51893;59.754;10.110;2023-11-19T00:18:32;-5.57;78.79
65291;SHT30;51893;59.754;10.110;2023-11-19T00:21:01;-5.58;78.72
65291;SHT30;51893;59.754;10.110;2023-11-19T00:23:30;-5.57;78.76
65291;SHT30;51893;59.754;10.110;2023-11-19T00:26:00;-5.61;78.66
65291;SHT30;51893;59.754;10.110;2023-11-19T00:28:28;-5.60;78.77
65291;SHT30;51893;59.754;10.110;2023-11-19T00:30:57;-5.61;78.76
65291;SHT30;51893;59.754;10.110;2023-11-19T00:33:25;-5.62;78.82
65291;SHT30;51893;59.754;10.110;2023-11-19T00:35:54;-5.55;78.94
65291;SHT30;51893;59.754;10.110;2023-11-19T00:38:23;-5.46;78.92
65291;SHT30;51893;59.754;10.110;2023-11-19T00:40:51;-5.38;78.91
65291;SHT30;51893;59.754;10.110;2023-11-19T00:43:22;-5.37;78.70
65291;SHT30;51893;59.754;10.110;2023-11-19T00:45:50;-5.28;78.68
65291;SHT30;51893;59.754;10.110;2023-11-19T00:48:19;-5.19;78.54
65291;SHT30;51893;59.754;10.110;2023-11-19T00:50:47;-5.16;78.38
65291;SHT30;51893;59.754;10.110;2023-11-19T00:53:15;-5.12;78.34
65291;SHT30;51893;59.754;10.110;2023-11-19T00:55:45;-5.20;78.26
65291;SHT30;51893;59.754;10.110;2023-11-19T00:58:15;-5.25;78.23
65291;SHT30;51893;59.754;10.110;2023-11-19T01:00:43;-5.29;78.36
65291;SHT30;51893;59.754;10.110;2023-11-19T01:03:12;-5.29;78.40
65291;SHT30;51893;59.754;10.110;2023-11-19T01:05:43;-5.30;78.37
65291;SHT30;51893;59.754;10.110;2023-11-19T01:08:12;-5.35;78.35
65291;SHT30;51893;59.754;10.110;2023-11-19T01:10:41;-5.38;78.42
65291;SHT30;51893;59.754;10.110;2023-11-19T01:13:09;-5.45;78.49
65291;SHT30;51893;59.754;10.110;2023-11-19T01:15:38;-5.47;78.56
65291;SHT30;51893;59.754;10.110;2023-11-19T01:18:07;-5.47;78.65
65291;SHT30;51893;59.754;10.110;2023-11-19T01:20:37;-5.47;78.69
65291;SHT30;51893;59.754;10.110;2023-11-19T01:23:05;-5.50;78.70
65291;SHT30;51893;59.754;10.110;2023-11-19T01:25:33;-5.50;78.80
65291;SHT30;51893;59.754;10.110;2023-11-19T01:28:03;-5.47;78.81
65291;SHT30;51893;59.754;10.110;2023-11-19T01:30:32;-5.48;78.71
65291;SHT30;51893;59.754;10.110;2023-11-19T01:33:00;-5.49;78.75
65291;SHT30;51893;59.754;10.110;2023-11-19T01:35:29;-5.52;78.74
65291;SHT30;51893;59.754;10.110;2023-11-19T01:37:59;-5.49;78.95
65291;SHT30;51893;59.754;10.110;2023-11-19T01:40:26;-5.40;78.98
65291;SHT30;51893;59.754;10.110;2023-11-19T01:42:55;-5.32;78.91
65291;SHT30;51893;59.754;10.110;2023-11-19T01:45:27;-5.24;78.79
65291;SHT30;51893;59.754;10.110;2023-11-19T01:48:00;-5.18;78.74
65291;SHT30;51893;59.754;10.110;2023-11-19T01:50:37;-5.14;78.69
65291;SHT30;51893;59.754;10.110;2023-11-19T01:53:07;-5.15;78.60
65291;SHT30;51893;59.754;10.110;2023-11-19T01:55:37;-5.15;78.60
65291;SHT30;51893;59.754;10.110;2023-11-19T01:58:06;-5.17;78.44
65291;SHT30;51893;59.754;10.110;2023-11-19T02:00:35;-5.17;78.37
65291;SHT30;51893;59.754;10.110;2023-11-19T02:03:05;-5.17;78.49
65291;SHT30;51893;59.754;10.110;2023-11-19T02:05:36;-5.15;78.52
65291;SHT30;51893;59.754;10.110;2023-11-19T02:08:06;-5.14;78.42
65291;SHT30;51893;59.754;10.110;2023-11-19T02:10:36;-5.15;78.42
65291;SHT30;51893;59.754;10.110;2023-11-19T02:13:07;-5.15;78.54
65291;SHT30;51893;59.754;10.110;2023-11-19T02:15:35;-5.11;78.60
65291;SHT30;51893;59.754;10.110;2023-11-19T02:18:39;-5.07;78.52
65291;SHT30;51893;59.754;10.110;2023-11-19T02:21:00;-5.11;78.48
65291;SHT30;51893;59.754;10.110;2023-11-19T02:23:28;-5.14;78.50
65291;SHT30;51893;59.754;10.110;2023-11-19T02:26:24;-5.15;78.58
65291;SHT30;51893;59.754;10.110;2023-11-19T02:28:58;-5.20;78.49
65291;SHT30;51893;59.754;10.110;2023-11-19T02:31:26;-5.21;78.50
65291;SHT30;51893;59.754;10.110;2023-11-19T02:33:55;-5.15;78.55
65291;SHT30;51893;59.754;10.110;2023-11-19T02:36:23;-5.12;78.46
65291;SHT30;51893;59.754;10.110;2023-11-19T02:38:52;-5.13;78.43
65291;SHT30;51893;59.754;10.110;2023-11-19T02:41:20;-5.15;78.37
65291;SHT30;51893;59.754;10.110;2023-11-19T02:43:49;-5.20;78.40
65291;SHT30;51893;59.754;10.110;2023-11-19T02:46:17;-5.19;78.46
65291;SHT30;51893;59.754;10.110;2023-11-19T02:48:47;-5.15;78.60
65291;SHT30;51893;59.754;10.110;2023-11-19T02:51:18;-5.15;78.61
65291;SHT30;51893;59.754;10.110;2023-11-19T02:53:46;-5.22;78.64
65291;SHT30;51893;59.754;10.110;2023-11-19T02:56:16;-5.18;78.80
65291;SHT30;51893;59.754;10.110;2023-11-19T02:58:56;-5.14;78.79
65291;SHT30;51893;59.754;10.110;2023-11-19T03:01:25;-5.07;78.79
65291;SHT30;51893;59.754;10.110;2023-11-19T03:04:02;-4.97;78.77
65291;SHT30;51893;59.754;10.110;2023-11-19T03:06:33;-4.94;78.47
65291;SHT30;51893;59.754;10.110;2023-11-19T03:09:02;-5.01;78.37
65291;SHT30;51893;59.754;10.110;2023-11-19T03:11:36;-5.01;78.40
65291;SHT30;51893;59.754;10.110;2023-11-19T03:14:04;-5.05;78.34
65291;SHT30;51893;59.754;10.110;2023-11-19T03:16:32;-5.03;78.48
65291;SHT30;51893;59.754;10.110;2023-11-19T03:19:01;-5.02;78.39
65291;SHT30;51893;59.754;10.110;2023-11-19T03:21:29;-5.06;78.50
65291;SHT30;51893;59.754;10.110;2023-11-19T03:23:59;-5.04;78.68
65291;SHT30;51893;59.754;10.110;2023-11-19T03:26:27;-5.04;78.60
65291;SHT30;51893;59.754;10.110;2023-11-19T03:28:56;-5.08;78.56
65291;SHT30;51893;59.754;10.110;2023-11-19T03:31:25;-5.07;78.71
65291;SHT30;51893;59.754;10.110;2023-11-19T03:33:53;-5.04;78.77
65291;SHT30;51893;59.754;10.110;2023-11-19T03:36:31;-4.99;78.98
65291;SHT30;51893;59.754;10.110;2023-11-19T03:39:01;-4.97;78.78
65291;SHT30;51893;59.754;10.110;2023-11-19T03:41:31;-4.94;78.70
65291;SHT30;51893;59.754;10.110;2023-11-19T03:44:02;-4.91;78.57
65291;SHT30;51893;59.754;10.110;2023-11-19T03:46:30;-4.87;78.49
65291;SHT30;51893;59.754;10.110;2023-11-19T03:48:59;-4.84;78.44
65291;SHT30;51893;59.754;10.110;2023-11-19T03:51:27;-4.80;78.40
65291;SHT30;51893;59.754;10.110;2023-11-19T03:53:55;-4.83;78.20
65291;SHT30;51893;59.754;10.110;2023-11-19T03:56:25;-4.84;78.25
65291;SHT30;51893;59.754;10.110;2023-11-19T03:58:55;-4.81;78.36
65291;SHT30;51893;59.754;10.110;2023-11-19T04:01:23;-4.80;78.33
65291;SHT30;51893;59.754;10.110;2023-11-19T04:03:51;-4.79;78.24
65291;SHT30;51893;59.754;10.110;2023-11-19T04:06:20;-4.76;78.17
65291;SHT30;51893;59.754;10.110;2023-11-19T04:08:48;-4.71;77.90
65291;SHT30;51893;59.754;10.110;2023-11-19T04:11:19;-4.69;77.55
65291;SHT30;51893;59.754;10.110;2023-11-19T04:13:48;-4.72;77.54
65291;SHT30;51893;59.754;10.110;2023-11-19T04:16:16;-4.71;77.62
65291;SHT30;51893;59.754;10.110;2023-11-19T04:18:46;-4.67;77.63
65291;SHT30;51893;59.754;10.110;2023-11-19T04:21:17;-4.68;77.36
65291;SHT30;51893;59.754;10.110;2023-11-19T04:23:45;-4.68;77.20
65291;SHT30;51893;59.754;10.110;2023-11-19T04:26:13;-4.71;77.07
65291;SHT30;51893;59.754;10.110;2023-11-19T04:28:41;-4.76;77.12
65291;SHT30;51893;59.754;10.110;2023-11-19T04:31:10;-4.74;77.20
65291;SHT30;51893;59.754;10.110;2023-11-19T04:33:38;-4.74;77.24
65291;SHT30;51893;59.754;10.110;2023-11-19T04:36:08;-4.73;77.30
65291;SHT30;51893;59.754;10.110;2023-11-19T04:38:39;-4.65;77.29
65291;SHT30;51893;59.754;10.110;2023-11-19T04:41:09;-4.69;77.10
65291;SHT30;51893;59.754;10.110;2023-11-19T04:43:37;-4.75;77.18
65291;SHT30;51893;59.754;10.110;2023-11-19T04:46:14;-4.76;77.15
65291;SHT30;51893;59.754;10.110;2023-11-19T04:48:44;-4.80;77.23
65291;SHT30;51893;59.754;10.110;2023-11-19T04:51:12;-4.80;77.38
65291;SHT30;51893;59.754;10.110;2023-11-19T04:53:45;-4.80;77.39
65291;SHT30;51893;59.754;10.110;2023-11-19T04:56:13;-4.81;77.43
65291;SHT30;51893;59.754;10.110;2023-11-19T04:58:40;-4.84;77.40
65291;SHT30;51893;59.754;10.110;2023-11-19T05:01:13;-4.84;77.56
65291;SHT30;51893;59.754;10.110;2023-11-19T05:03:45;-4.76;77.52
65291;SHT30;51893;59.754;10.110;2023-11-19T05:06:14;-4.70;77.46
65291;SHT30;51893;59.754;10.110;2023-11-19T05:08:46;-4.70;77.35
65291;SHT30;51893;59.754;10.110;2023-11-19T05:11:16;-4.72;77.40
65291;SHT30;51893;59.754;10.110;2023-11-19T05:13:47;-4.70;77.51
65291;SHT30;51893;59.754;10.110;2023-11-19T05:16:15;-4.70;77.60
65291;SHT30;51893;59.754;10.110;2023-11-19T05:18:45;-4.75;77.53
65291;SHT30;51893;59.754;10.110;2023-11-19T05:21:13;-4.80;77.59
65291;SHT30;51893;59.754;10.110;2023-11-19T05:23:41;-4.86;77.60
65291;SHT30;51893;59.754;10.110;2023-11-19T05:26:16;-4.87;77.69
65291;SHT30;51893;59.754;10.110;2023-11-19T05:28:47;-4.81;77.69
65291;SHT30;51893;59.754;10.110;2023-11-19T05:31:16;-4.84;77.55
65291;SHT30;51893;59.754;10.110;2023-11-19T05:33:46;-4.85;77.60
65291;SHT30;51893;59.754;10.110;2023-11-19T05:36:14;-4.83;77.74
65291;SHT30;51893;59.754;10.110;2023-11-19T05:38:43;-4.82;77.72
65291;SHT30;51893;59.754;10.110;2023-11-19T05:41:13;-4.81;77.77
65291;SHT30;51893;59.754;10.110;2023-11-19T05:43:41;-4.80;77.85
65291;SHT30;51893;59.754;10.110;2023-11-19T05:46:10;-4.79;77.87
65291;SHT30;51893;59.754;10.110;2023-11-19T05:48:41;-4.76;77.93
65291;SHT30;51893;59.754;10.110;2023-11-19T05:51:10;-4.68;78.01
65291;SHT30;51893;59.754;10.110;2023-11-19T05:53:38;-4.69;77.85
65291;SHT30;51893;59.754;10.110;2023-11-19T05:56:06;-4.73;77.86
65291;SHT30;51893;59.754;10.110;2023-11-19T05:58:37;-4.71;77.89
65291;SHT30;51893;59.754;10.110;2023-11-19T06:01:10;-4.71;77.88
65291;SHT30;51893;59.754;10.110;2023-11-19T06:03:38;-4.68;77.85
65291;SHT30;51893;59.754;10.110;2023-11-19T06:06:07;-4.67;77.80
65291;SHT30;51893;59.754;10.110;2023-11-19T06:08:35;-4.65;77.69
65291;SHT30;51893;59.754;10.110;2023-11-19T06:11:05;-4.63;77.67
65291;SHT30;51893;59.754;10.110;2023-11-19T06:13:34;-4.64;77.63
65291;SHT30;51893;59.754;10.110;2023-11-19T06:16:02;-4.62;77.67
65291;SHT30;51893;59.754;10.110;2023-11-19T06:18:38;-4.59;77.70
65291;SHT30;51893;59.754;10.110;2023-11-19T06:21:09;-4.59;77.71
65291;SHT30;51893;59.754;10.110;2023-11-19T06:23:39;-4.53;77.73
65291;SHT30;51893;59.754;10.110;2023-11-19T06:26:08;-4.49;77.68
65291;SHT30;51893;59.754;10.110;2023-11-19T06:28:36;-4.51;77.49
65291;SHT30;51893;59.754;10.110;2023-11-19T06:31:09;-4.57;77.34
65291;SHT30;51893;59.754;10.110;2023-11-19T06:33:38;-4.60;77.30
65291;SHT30;51893;59.754;10.110;2023-11-19T06:36:07;-4.66;77.33
65291;SHT30;51893;59.754;10.110;2023-11-19T06:38:36;-4.64;77.48
65291;SHT30;51893;59.754;10.110;2023-11-19T06:41:06;-4.64;77.28
65291;SHT30;51893;59.754;10.110;2023-11-19T06:43:37;-4.63;77.26
65291;SHT30;51893;59.754;10.110;2023-11-19T06:46:17;-4.65;77.22
65291;SHT30;51893;59.754;10.110;2023-11-19T06:48:47;-4.68;77.26
65291;SHT30;51893;59.754;10.110;2023-11-19T06:51:16;-4.72;77.37
65291;SHT30;51893;59.754;10.110;2023-11-19T06:53:44;-4.71;77.45
65291;SHT30;51893;59.754;10.110;2023-11-19T06:56:20;-4.66;77.48
65291;SHT30;51893;59.754;10.110;2023-11-19T06:58:49;-4.59;77.40
65291;SHT30;51893;59.754;10.110;2023-11-19T07:01:19;-4.55;77.26
65291;SHT30;51893;59.754;10.110;2023-11-19T07:03:48;-4.55;77.16
65291;SHT30;51893;59.754;10.110;2023-11-19T07:06:17;-4.57;77.17
65291;SHT30;51893;59.754;10.110;2023-11-19T07:09:02;-4.51;77.25
65291;SHT30;51893;59.754;10.110;2023-11-19T07:11:41;-4.55;77.09
65291;SHT30;51893;59.754;10.110;2023-11-19T07:14:13;-4.55;77.19
65291;SHT30;51893;59.754;10.110;2023-11-19T07:16:42;-4.52;77.18
65291;SHT30;51893;59.754;10.110;2023-11-19T07:19:11;-4.51;77.28
65291;SHT30;51893;59.754;10.110;2023-11-19T07:21:42;-4.52;77.29
65291;SHT30;51893;59.754;10.110;2023-11-19T07:24:12;-4.55;77.35
65291;SHT30;51893;59.754;10.110;2023-11-19T07:26:44;-4.60;77.48
65291;SHT30;51893;59.754;10.110;2023-11-19T07:29:15;-4.60;77.50
65291;SHT30;51893;59.754;10.110;2023-11-19T07:31:56;-4.62;77.53
65291;SHT30;51893;59.754;10.110;2023-11-19T07:34:24;-4.59;77.61
65291;SHT30;51893;59.754;10.110;2023-11-19T07:36:53;-4.61;77.56
65291;SHT30;51893;59.754;10.110;2023-11-19T07:39:22;-4.60;77.66
65291;SHT30;51893;59.754;10.110;2023-11-19T07:41:50;-4.54;77.62
65291;SHT30;51893;59.754;10.110;2023-11-19T07:44:19;-4.46;77.61
65291;SHT30;51893;59.754;10.110;2023-11-19T07:46:48;-4.43;77.41
65291;SHT30;51893;59.754;10.110;2023-11-19T07:49:20;-4.45;77.26
65291;SHT30;51893;59.754;10.110;2023-11-19T07:51:48;-4.49;77.32
65291;SHT30;51893;59.754;10.110;2023-11-19T07:54:16;-4.44;77.31
65291;SHT30;51893;59.754;10.110;2023-11-19T07:56:44;-4.41;77.23
65291;SHT30;51893;59.754;10.110;2023-11-19T07:59:13;-4.43;77.20
65291;SHT30;51893;59.754;10.110;2023-11-19T08:01:41;-4.43;77.26
65291;SHT30;51893;59.754;10.110;2023-11-19T08:04:09;-4.42;77.20
65291;SHT30;51893;59.754;10.110;2023-11-19T08:06:38;-4.39;77.08
65291;SHT30;51893;59.754;10.110;2023-11-19T08:09:06;-4.41;77.06
65291;SHT30;51893;59.754;10.110;2023-11-19T08:11:34;-4.40;77.13
65291;SHT30;51893;59.754;10.110;2023-11-19T08:14:04;-4.40;77.15
65291;SHT30;51893;59.754;10.110;2023-11-19T08:16:33;-4.38;77.17
65291;SHT30;51893;59.754;10.110;2023-11-19T08:19:02;-4.34;77.22
65291;SHT30;51893;59.754;10.110;2023-11-19T08:21:33;-4.32;77.14
65291;SHT30;51893;59.754;10.110;2023-11-19T08:24:02;-4.30;77.16
65291;SHT30;51893;59.754;10.110;2023-11-19T08:26:31;-4.31;77.10
65291;SHT30;51893;59.754;10.110;2023-11-19T08:29:00;-4.35;77.14
65291;SHT30;51893;59.754;10.110;2023-11-19T08:31:28;-4.36;77.24
65291;SHT30;51893;59.754;10.110;2023-11-19T08:33:57;-4.33;77.24
65291;SHT30;51893;59.754;10.110;2023-11-19T08:36:25;-4.29;77.16
65291;SHT30;51893;59.754;10.110;2023-11-19T08:38:53;-4.29;77.23
65291;SHT30;51893;59.754;10.110;2023-11-19T08:41:23;-4.28;77.23
65291;SHT30;51893;59.754;10.110;2023-11-19T08:43:50;-4.31;77.18
65291;SHT30;51893;59.754;10.110;2023-11-19T08:46:19;-4.33;77.25
65291;SHT30;51893;59.754;10.110;2023-11-19T08:48:50;-4.32;77.32
65291;SHT30;51893;59.754;10.110;2023-11-19T08:51:18;-4.23;77.34
65291;SHT30;51893;59.754;10.110;2023-11-19T08:53:46;-4.20;77.20
65291;SHT30;51893;59.754;10.110;2023-11-19T08:56:16;-4.18;77.19
65291;SHT30;51893;59.754;10.110;2023-11-19T08:58:44;-4.17;76.97
65291;SHT30;51893;59.754;10.110;2023-11-19T09:01:15;-4.20;76.89
65291;SHT30;51893;59.754;10.110;2023-11-19T09:03:43;-4.21;76.98
65291;SHT30;51893;59.754;10.110;2023-11-19T09:06:12;-4.19;77.00
65291;SHT30;51893;59.754;10.110;2023-11-19T09:08:41;-4.19;76.96
65291;SHT30;51893;59.754;10.110;2023-11-19T09:11:10;-4.21;76.93
65291;SHT30;51893;59.754;10.110;2023-11-19T09:13:39;-4.23;76.90
65291;SHT30;51893;59.754;10.110;2023-11-19T09:16:08;-4.24;76.94
65291;SHT30;51893;59.754;10.110;2023-11-19T09:18:37;-4.23;76.99
65291;SHT30;51893;59.754;10.110;2023-11-19T09:21:06;-4.15;76.99
65291;SHT30;51893;59.754;10.110;2023-11-19T09:23:37;-4.13;76.89
65291;SHT30;51893;59.754;10.110;2023-11-19T09:26:10;-4.12;76.92
65291;SHT30;51893;59.754;10.110;2023-11-19T09:28:40;-4.06;77.03
65291;SHT30;51893;59.754;10.110;2023-11-19T09:31:16;-4.05;76.89
65291;SHT30;51893;59.754;10.110;2023-11-19T09:33:45;-4.09;76.94
65291;SHT30;51893;59.754;10.110;2023-11-19T09:36:15;-4.05;77.08
65291;SHT30;51893;59.754;10.110;2023-11-19T09:38:44;-4.07;77.02
65291;SHT30;51893;59.754;10.110;2023-11-19T09:41:17;-4.09;77.00
65291;SHT30;51893;59.754;10.110;2023-11-19T09:43:47;-4.09;77.04
65291;SHT30;51893;59.754;10.110;2023-11-19T09:46:18;-4.09;77.24
65291;SHT30;51893;59.754;10.110;2023-11-19T09:48:47;-4.09;77.38
65291;SHT30;51893;59.754;10.110;2023-11-19T09:51:20;-4.11;77.47
65291;SHT30;51893;59.754;10.110;2023-11-19T09:53:52;-4.11;77.46
65291;SHT30;51893;59.754;10.110;2023-11-19T09:56:20;-4.14;77.43
65291;SHT30;51893;59.754;10.110;2023-11-19T09:58:49;-4.13;77.57
65291;SHT30;51893;59.754;10.110;2023-11-19T10:01:17;-4.14;77.53
65291;SHT30;51893;59.754;10.110;2023-11-19T10:03:55;-4.19;77.54
65291;SHT30;51893;59.754;10.110;2023-11-19T10:06:27;-4.18;77.64
65291;SHT30;51893;59.754;10.110;2023-11-19T10:08:57;-4.16;77.67
65291;SHT30;51893;59.754;10.110;2023-11-19T10:11:25;-4.12;77.69
65291;SHT30;51893;59.754;10.110;2023-11-19T10:13:53;-4.14;77.48
65291;SHT30;51893;59.754;10.110;2023-11-19T10:16:28;-4.14;77.46
65291;SHT30;51893;59.754;10.110;2023-11-19T10:19:01;-4.15;77.40
65291;SHT30;51893;59.754;10.110;2023-11-19T10:21:32;-4.15;77.52
65291;SHT30;51893;59.754;10.110;2023-11-19T10:24:02;-4.14;77.50
65291;SHT30;51893;59.754;10.110;2023-11-19T10:26:30;-4.12;77.51
65291;SHT30;51893;59.754;10.110;2023-11-19T10:29:05;-4.08;77.43
65291;SHT30;51893;59.754;10.110;2023-11-19T10:31:34;-4.04;77.37
65291;SHT30;51893;59.754;10.110;2023-11-19T10:34:02;-4.01;77.37
65291;SHT30;51893;59.754;10.110;2023-11-19T10:36:38;-3.98;77.30
65291;SHT30;51893;59.754;10.110;2023-11-19T10:39:08;-4.00;77.18
65291;SHT30;51893;59.754;10.110;2023-11-19T10:41:36;-3.96;77.17
65291;SHT30;51893;59.754;10.110;2023-11-19T10:44:05;-3.91;77.10
65291;SHT30;51893;59.754;10.110;2023-11-19T10:46:40;-3.89;77.05
65291;SHT30;51893;59.754;10.110;2023-11-19T10:49:18;-3.92;76.97
65291;SHT30;51893;59.754;10.110;2023-11-19T10:51:46;-3.94;77.05
65291;SHT30;51893;59.754;10.110;2023-11-19T10:54:18;-3.94;77.12
65291;SHT30;51893;59.754;10.110;2023-11-19T10:56:48;-3.92;77.06
65291;SHT30;51893;59.754;10.110;2023-11-19T10:59:35;-3.90;77.08
65291;SHT30;51893;59.754;10.110;2023-11-19T11:02:06;-3.90;77.03
65291;SHT30;51893;59.754;10.110;2023-11-19T11:04:40;-3.91;77.13
65291;SHT30;51893;59.754;10.110;2023-11-19T11:07:11;-3.92;77.20
65291;SHT30;51893;59.754;10.110;2023-11-19T11:09:42;-3.94;77.32
65291;SHT30;51893;59.754;10.110;2023-11-19T11:12:11;-3.93;77.50
65291;SHT30;51893;59.754;10.110;2023-11-19T11:14:40;-3.91;77.53
65291;SHT30;51893;59.754;10.110;2023-11-19T11:17:13;-3.90;77.55
65291;SHT30;51893;59.754;10.110;2023-11-19T11:19:46;-3.88;77.51
65291;SHT30;51893;59.754;10.110;2023-11-19T11:22:15;-3.89;77.43
65291;SHT30;51893;59.754;10.110;2023-11-19T11:28:18;-3.77;77.31
65291;SHT30;51893;59.754;10.110;2023-11-19T11:31:15;-3.71;77.24
65291;SHT30;51893;59.754;10.110;2023-11-19T11:37:12;-3.72;77.19
65291;SHT30;51893;59.754;10.110;2023-11-19T11:40:04;-3.68;77.13
65291;SHT30;51893;59.754;10.110;2023-11-19T11:42:39;-3.65;77.14
65291;SHT30;51893;59.754;10.110;2023-11-19T11:50:10;-3.63;77.01
65291;SHT30;51893;59.754;10.110;2023-11-19T11:55:40;-3.59;77.02
65291;SHT30;51893;59.754;10.110;2023-11-19T11:58:28;-3.59;76.99
65291;SHT30;51893;59.754;10.110;2023-11-19T12:01:01;-3.51;76.99
65291;SHT30;51893;59.754;10.110;2023-11-19T12:03:33;-3.41;76.94
65291;SHT30;51893;59.754;10.110;2023-11-19T12:06:01;-3.36;76.76
65291;SHT30;51893;59.754;10.110;2023-11-19T12:08:35;-3.33;76.66
65291;SHT30;51893;59.754;10.110;2023-11-19T12:11:20;-3.40;76.59
65291;SHT30;51893;59.754;10.110;2023-11-19T12:13:53;-3.44;76.61
65291;SHT30;51893;59.754;10.110;2023-11-19T12:16:27;-3.45;76.62
65291;SHT30;51893;59.754;10.110;2023-11-19T12:18:57;-3.46;76.67
65291;SHT30;51893;59.754;10.110;2023-11-19T12:21:34;-3.43;76.64
65291;SHT30;51893;59.754;10.110;2023-11-19T12:24:06;-3.36;76.66
65291;SHT30;51893;59.754;10.110;2023-11-19T12:26:36;-3.30;76.59
65291;SHT30;51893;59.754;10.110;2023-11-19T12:29:06;-3.26;76.50
65291;SHT30;51893;59.754;10.110;2023-11-19T12:31:36;-3.25;76.40
65291;SHT30;51893;59.754;10.110;2023-11-19T12:34:06;-3.29;76.31
65291;SHT30;51893;59.754;10.110;2023-11-19T12:36:40;-3.32;76.36
65291;SHT30;51893;59.754;10.110;2023-11-19T12:39:10;-3.26;76.40
65291;SHT30;51893;59.754;10.110;2023-11-19T12:41:53;-3.23;76.30
65291;SHT30;51893;59.754;10.110;2023-11-19T12:44:22;-3.26;76.26
65291;SHT30;51893;59.754;10.110;2023-11-19T12:47:09;-3.28;76.26
65291;SHT30;51893;59.754;10.110;2023-11-19T12:49:39;-3.22;76.16
65291;SHT30;51893;59.754;10.110;2023-11-19T12:52:12;-3.20;76.16
65291;SHT30;51893;59.754;10.110;2023-11-19T12:54:41;-3.21;76.25
65291;SHT30;51893;59.754;10.110;2023-11-19T12:57:10;-3.20;76.24
65291;SHT30;51893;59.754;10.110;2023-11-19T12:59:41;-3.23;76.17
65291;SHT30;51893;59.754;10.110;2023-11-19T13:02:12;-3.24;76.10
65291;SHT30;51893;59.754;10.110;2023-11-19T13:04:40;-3.24;76.04
65291;SHT30;51893;59.754;10.110;2023-11-19T13:07:08;-3.27;76.03
65291;SHT30;51893;59.754;10.110;2023-11-19T13:09:36;-3.24;76.07
65291;SHT30;51893;59.754;10.110;2023-11-19T13:12:14;-3.26;76.01
65291;SHT30;51893;59.754;10.110;2023-11-19T13:14:44;-3.30;76.04
65291;SHT30;51893;59.754;10.110;2023-11-19T13:17:15;-3.33;76.07
65291;SHT30;51893;59.754;10.110;2023-11-19T13:19:46;-3.35;76.14
65291;SHT30;51893;59.754;10.110;2023-11-19T13:22:16;-3.33;76.20
65291;SHT30;51893;59.754;10.110;2023-11-19T13:24:45;-3.31;76.19
65291;SHT30;51893;59.754;10.110;2023-11-19T13:27:13;-3.33;76.26
65291;SHT30;51893;59.754;10.110;2023-11-19T13:29:42;-3.31;76.31
65291;SHT30;51893;59.754;10.110;2023-11-19T13:32:12;-3.34;76.31
65291;SHT30;51893;59.754;10.110;2023-11-19T13:34:41;-3.33;76.45
65291;SHT30;51893;59.754;10.110;2023-11-19T13:37:10;-3.33;76.53
65291;SHT30;51893;59.754;10.110;2023-11-19T13:39:41;-3.32;76.56
65291;SHT30;51893;59.754;10.110;2023-11-19T13:42:10;-3.35;76.58
65291;SHT30;51893;59.754;10.110;2023-11-19T13:44:40;-3.33;76.65
65291;SHT30;51893;59.754;10.110;2023-11-19T13:47:09;-3.31;76.60
65291;SHT30;51893;59.754;10.110;2023-11-19T13:49:37;-3.24;76.58
65291;SHT30;51893;59.754;10.110;2023-11-19T13:52:05;-3.20;76.60
65291;SHT30;51893;59.754;10.110;2023-11-19T13:54:34;-3.15;76.50
65291;SHT30;51893;59.754;10.110;2023-11-19T13:57:02;-3.13;76.50
65291;SHT30;51893;59.754;10.110;2023-11-19T13:59:39;-3.12;76.44
65291;SHT30;51893;59.754;10.110;2023-11-19T14:02:09;-3.18;76.40
65291;SHT30;51893;59.754;10.110;2023-11-19T14:04:37;-3.22;76.55
65291;SHT30;51893;59.754;10.110;2023-11-19T14:07:08;-3.17;76.70
65291;SHT30;51893;59.754;10.110;2023-11-19T14:09:39;-3.13;76.71
65291;SHT30;51893;59.754;10.110;2023-11-19T14:12:12;-3.09;76.76
65291;SHT30;51893;59.754;10.110;2023-11-19T14:14:43;-3.05;76.74
65291;SHT30;51893;59.754;10.110;2023-11-19T14:17:11;-3.07;76.54
65291;SHT30;51893;59.754;10.110;2023-11-19T14:19:42;-3.13;76.54
65291;SHT30;51893;59.754;10.110;2023-11-19T14:22:10;-3.12;76.61
65291;SHT30;51893;59.754;10.110;2023-11-19T14:24:39;-3.06;76.61
65291;SHT30;51893;59.754;10.110;2023-11-19T14:27:10;-3.03;76.52
65291;SHT30;51893;59.754;10.110;2023-11-19T14:29:38;-2.99;76.56
65291;SHT30;51893;59.754;10.110;2023-11-19T14:32:08;-2.99;76.49
65291;SHT30;51893;59.754;10.110;2023-11-19T14:34:36;-3.02;76.51
65291;SHT30;51893;59.754;10.110;2023-11-19T14:37:05;-3.05;76.60
65291;SHT30;51893;59.754;10.110;2023-11-19T14:39:34;-3.06;76.75
65291;SHT30;51893;59.754;10.110;2023-11-19T14:42:03;-3.02;76.94
65291;SHT30;51893;59.754;10.110;2023-11-19T14:44:33;-3.00;77.00
65291;SHT30;51893;59.754;10.110;2023-11-19T14:47:01;-3.00;77.17
65291;SHT30;51893;59.754;10.110;2023-11-19T14:49:30;-2.97;77.31
65291;SHT30;51893;59.754;10.110;2023-11-19T14:51:58;-2.95;77.42
65291;SHT30;51893;59.754;10.110;2023-11-19T14:54:44;-2.92;77.50
65291;SHT30;51893;59.754;10.110;2023-11-19T14:57:12;-2.92;77.51
65291;SHT30;51893;59.754;10.110;2023-11-19T14:59:40;-2.92;77.54
65291;SHT30;51893;59.754;10.110;2023-11-19T15:02:10;-2.89;77.63
65291;SHT30;51893;59.754;10.110;2023-11-19T15:04:38;-2.90;77.52
65291;SHT30;51893;59.754;10.110;2023-11-19T15:07:08;-2.92;77.54
65291;SHT30;51893;59.754;10.110;2023-11-19T15:09:39;-2.92;77.63
65291;SHT30;51893;59.754;10.110;2023-11-19T15:12:08;-2.94;77.73
65291;SHT30;51893;59.754;10.110;2023-11-19T15:14:37;-2.94;77.88
65291;SHT30;51893;59.754;10.110;2023-11-19T15:17:05;-2.94;78.06
65291;SHT30;51893;59.754;10.110;2023-11-19T15:19:35;-2.91;78.25
65291;SHT30;51893;59.754;10.110;2023-11-19T15:22:03;-2.89;78.37
65291;SHT30;51893;59.754;10.110;2023-11-19T15:24:34;-2.88;78.49
65291;SHT30;51893;59.754;10.110;2023-11-19T15:27:06;-2.93;78.69
65291;SHT30;51893;59.754;10.110;2023-11-19T15:29:41;-2.95;79.01
65291;SHT30;51893;59.754;10.110;2023-11-19T15:32:10;-2.99;79.21
65291;SHT30;51893;59.754;10.110;2023-11-19T15:34:38;-3.02;79.51
65291;SHT30;51893;59.754;10.110;2023-11-19T15:37:09;-2.98;79.68
65291;SHT30;51893;59.754;10.110;2023-11-19T15:39:39;-2.91;79.71
65291;SHT30;51893;59.754;10.110;2023-11-19T15:42:09;-2.91;79.72
65291;SHT30;51893;59.754;10.110;2023-11-19T15:44:39;-2.97;79.89
65291;SHT30;51893;59.754;10.110;2023-11-19T15:47:12;-3.04;80.17
65291;SHT30;51893;59.754;10.110;2023-11-19T15:49:42;-3.13;80.61